createdAt,value
2018-10-21T13:19:55.091Z,2.20
2018-10-21T13:22:23.907Z,2.30
2018-10-21T13:24:53.976Z,2.27
2018-10-21T13:27:22.481Z,1.90
2018-10-21T13:29:50.958Z,1.93
2018-10-21T13:32:19.428Z,1.93
2018-10-21T13:34:47.902Z,1.63
2018-10-21T13:37:16.418Z,1.70
2018-10-21T13:39:51.352Z,1.80
2018-10-21T13:42:19.814Z,1.73
2018-10-21T13:44:48.289Z,1.70
2018-10-21T13:47:16.756Z,1.70
2018-10-21T13:49:45.234Z,2.03
2018-10-21T13:52:13.837Z,1.60
2018-10-21T13:54:42.208Z,1.50
2018-10-21T13:57:10.697Z,1.67
2018-10-21T13:59:39.106Z,1.63
2018-10-21T14:02:07.505Z,1.70
2018-10-21T14:04:35.912Z,2.23
2018-10-21T14:07:04.331Z,1.70
2018-10-21T14:09:32.763Z,1.60
2018-10-21T14:12:01.165Z,1.57
2018-10-21T14:14:29.661Z,1.50
2018-10-21T14:16:58.069Z,1.40
2018-10-21T14:19:26.489Z,1.70
2018-10-21T14:21:54.930Z,1.60
2018-10-21T14:24:23.457Z,1.33
2018-10-21T14:26:51.852Z,1.43
2018-10-21T14:29:20.342Z,1.70
2018-10-21T14:31:48.796Z,1.50
2018-10-21T14:34:17.243Z,1.60
2018-10-21T14:36:45.670Z,2.00
2018-10-21T14:39:14.173Z,2.00
2018-10-21T14:41:42.569Z,1.80
2018-10-21T14:44:11.017Z,1.70
2018-10-21T14:46:40.018Z,1.90
2018-10-21T14:49:09.438Z,1.80
2018-10-21T14:51:37.857Z,2.10
2018-10-21T14:54:06.564Z,2.13
2018-10-21T14:56:34.931Z,1.90
2018-10-21T14:59:03.489Z,1.87
2018-10-21T15:01:36.707Z,2.03
2018-10-21T15:04:05.692Z,2.17
2018-10-21T15:06:34.119Z,1.80
2018-10-21T15:09:03.156Z,2.10
2018-10-21T15:11:31.652Z,2.00
2018-10-21T15:14:00.167Z,2.23
2018-10-21T15:16:29.475Z,2.10
2018-10-21T15:18:57.971Z,2.23
2018-10-21T15:21:26.390Z,2.20
2018-10-21T15:23:54.907Z,2.37
2018-10-21T15:26:24.193Z,2.17
2018-10-21T15:28:52.691Z,2.03
2018-10-21T15:31:21.177Z,2.10
2018-10-21T15:33:49.717Z,2.33
2018-10-21T15:36:18.222Z,2.23
2018-10-21T15:38:46.762Z,2.57
2018-10-21T15:41:15.321Z,2.27
2018-10-21T15:43:43.793Z,2.63
2018-10-21T15:46:12.432Z,2.40
2018-10-21T15:48:40.982Z,2.33
2018-10-21T15:51:09.605Z,2.27
2018-10-21T15:53:38.101Z,2.30
2018-10-21T15:56:06.652Z,2.43
2018-10-21T15:58:35.078Z,2.33
2018-10-21T16:01:03.602Z,2.50
2018-10-21T16:03:32.122Z,3.30
2018-10-21T16:06:00.636Z,2.87
2018-10-21T16:08:29.084Z,2.90
2018-10-21T16:10:57.580Z,3.03
2018-10-21T16:13:26.041Z,3.20
2018-10-21T16:15:54.585Z,3.10
2018-10-21T16:18:22.998Z,3.27
2018-10-21T16:20:51.545Z,2.97
2018-10-21T16:23:20.052Z,2.70
2018-10-21T16:25:48.543Z,3.40
2018-10-21T16:28:17.100Z,3.10
2018-10-21T16:30:45.490Z,3.53
2018-10-21T16:33:13.957Z,3.60
2018-10-21T16:35:42.480Z,3.60
2018-10-21T16:38:10.928Z,4.07
2018-10-21T16:40:39.477Z,7.47
2018-10-21T16:43:07.878Z,5.27
2018-10-21T16:45:36.369Z,4.43
2018-10-21T16:48:04.915Z,4.80
2018-10-21T16:50:37.736Z,4.70
2018-10-21T16:53:01.953Z,5.77
2018-10-21T16:55:30.285Z,6.30
2018-10-21T16:57:58.767Z,8.37
